FTA weather

Futuna Airport
Futuna Island, Tafea, Vanuatu

Public forecast

Using degrees Celsius for public forecast. Weather courtesy of forecast.io.

Closest aviation weather report (METAR) to Futuna Airport

Report is more than 2 hours old.

Closest report is Aneityum Airport, 51.1 nm (94.7 km) SSW. Retrieved 2019/12/15 18:00 UTC (3 hours ago):

NVVA 151800Z 09004KT 9999 FEW018 SCT020 BKN038 24/23 Q1008

Closest aviation forecast (TAF) to Futuna Airport

Closest forecast is Aneityum Airport, 51.1 nm (94.7 km) SSW. Retrieved 2019/12/15 18:06 UTC (3 hours ago):

TAF NVVA 151600Z 1518/1618 VRB02KT 9999 SCT020 INTER 1518/1524 9000 SHRA FEW010 BKN018